Vicosa, Brazil
Current Conditions -  °F | °C
As of 3:00 PM on Sunday 21 Dec 2014 (Local Time) from SBBQ Reporting Station
Scattered Clouds Scattered Clouds  
Wind Chill: 72°   Ceiling: Unl
Heat Index: 72°   Visibility: 4mi
Dew Point: 68°   Wind: 2mph
Humidity: 88%   Direction: 130°SE
Pressure: 30.09"   Gusts: NA
Location:  20.75°S, 42.88°W
Report Text: SBBQ 211700Z 13002KT 7000 FEW020 SCT035 FEW040TCU 22/20 Q1019 RETS
Loading
Personal Weather Stations






























Interactive Weather Map New forecast layout! Learn more

10-Day Weather Forecast

Advertisements
Track Severe Weather on mobile